Time;durP1;ratioP1;P1;durP2;ratioP2;P2;SDS_P1;SDS_P2;PMS_P1;PMS_P2;Temp;Humidity;BMP_temperature;BMP_pressure;BME280_temperature;BME280_humidity;BME280_pressure;Samples;Min_cycle;Max_cycle;Signal;HPM_P1;HPM_P2
2022/09/25 00:01:13;;;;;;;23.00;15.10;;;;;;;15.78;71.68;98726.69;5201306;28;20053;-76
2022/09/25 00:04:04;;;;;;;22.30;14.73;;;;;;;15.73;71.92;98719.25;5203281;28;20559;-74
2022/09/25 00:06:54;;;;;;;22.90;15.48;;;;;;;15.52;71.65;98709.22;5199535;28;20207;-76
2022/09/25 00:09:44;;;;;;;19.73;14.10;;;;;;;15.55;71.77;98733.94;5202236;28;20737;-75
2022/09/25 00:12:34;;;;;;;22.45;14.45;;;;;;;15.51;71.96;98720.94;5199957;28;20180;-75
2022/09/25 00:15:25;;;;;;;22.40;14.52;;;;;;;15.65;71.73;98715.78;5210668;28;20056;-76
2022/09/25 00:18:16;;;;;;;22.77;15.00;;;;;;;15.69;72.20;98719.78;5197336;28;20056;-76
2022/09/25 00:21:11;;;;;;;32.13;17.60;;;;;;;15.50;71.85;98719.28;5199775;28;20052;-75
2022/09/25 00:24:07;;;;;;;27.60;17.15;;;;;;;15.47;72.20;98714.28;5197967;28;20065;-75
2022/09/25 00:26:58;;;;;;;28.77;17.65;;;;;;;15.34;72.04;98708.75;5201650;28;20087;-75
2022/09/25 00:29:48;;;;;;;28.90;16.25;;;;;;;15.16;72.26;98701.03;5202535;28;20048;-75
2022/09/25 00:32:39;;;;;;;26.48;15.85;;;;;;;15.33;72.34;98720.44;5200262;28;20479;-75
2022/09/25 00:35:29;;;;;;;27.88;17.35;;;;;;;15.41;72.38;98714.19;5202163;28;20100;-76
2022/09/25 00:38:19;;;;;;;30.45;17.48;;;;;;;15.45;72.58;98705.63;5201533;28;20609;-75
2022/09/25 00:41:09;;;;;;;28.17;17.08;;;;;;;15.62;71.86;98708.13;5200524;28;20073;-75
2022/09/25 00:44:02;;;;;;;30.08;16.60;;;;;;;15.63;72.14;98705.28;5202106;28;20049;-76
2022/09/25 00:46:52;;;;;;;29.67;17.25;;;;;;;15.51;72.49;98698.72;5201382;28;20060;-73
2022/09/25 00:49:43;;;;;;;29.38;16.48;;;;;;;15.42;72.75;98697.97;5200054;28;20041;-76
2022/09/25 00:52:33;;;;;;;28.05;16.05;;;;;;;15.38;72.90;98685.16;5201855;28;20084;-75
2022/09/25 00:55:23;;;;;;;25.05;16.02;;;;;;;15.31;72.44;98682.38;5201975;28;20045;-76
2022/09/25 00:58:18;;;;;;;24.80;15.52;;;;;;;15.46;71.85;98685.06;5200502;28;20049;-73
2022/09/25 01:01:09;;;;;;;22.02;14.13;;;;;;;15.41;71.93;98671.44;5199772;28;20065;-76
2022/09/25 01:03:59;;;;;;;21.50;14.25;;;;;;;15.45;71.72;98676.22;5200804;28;20049;-76
2022/09/25 01:06:49;;;;;;;24.83;15.27;;;;;;;15.52;71.38;98674.47;5198227;28;20547;-76
2022/09/25 01:09:40;;;;;;;26.02;14.77;;;;;;;15.40;71.71;98675.97;5202383;28;20048;-76
2022/09/25 01:12:32;;;;;;;20.58;14.23;;;;;;;15.44;72.04;98669.22;5198073;28;20107;-77
2022/09/25 01:15:37;;;;;;;23.75;14.02;;;;;;;15.27;71.53;98681.09;5201517;28;20138;-75
2022/09/25 01:18:42;;;;;;;24.73;13.18;;;;;;;15.22;71.05;98668.28;5198358;28;20052;-76
2022/09/25 01:22:25;;;;;;;20.13;13.52;;;;;;;15.12;71.41;98673.03;5200427;28;20714;-74
2022/09/25 01:25:48;;;;;;;19.85;13.13;;;;;;;15.12;71.53;98672.22;5155395;28;20111;-76
2022/09/25 01:29:06;;;;;;;22.42;14.60;;;;;;;15.17;72.62;98686.69;5196628;28;20135;-76
2022/09/25 01:32:17;;;;;;;24.77;15.25;;;;;;;15.20;73.03;98686.34;5196476;28;20057;-77
2022/09/25 01:35:33;;;;;;;25.63;15.68;;;;;;;15.24;73.56;98681.47;5198172;28;20107;-77
2022/09/25 01:38:31;;;;;;;21.85;15.05;;;;;;;15.19;73.59;98679.31;5200950;28;20041;-76
2022/09/25 01:41:20;;;;;;;24.95;15.40;;;;;;;15.22;73.66;98678.13;5200922;28;20065;-76
2022/09/25 01:44:16;;;;;;;25.00;15.45;;;;;;;15.26;73.68;98684.75;5195523;28;20550;-76
2022/09/25 01:47:12;;;;;;;25.67;16.30;;;;;;;15.44;72.79;98679.09;5199661;28;20138;-73
2022/09/25 01:50:08;;;;;;;23.58;16.15;;;;;;;15.15;74.62;98677.19;5199511;28;20484;-73
2022/09/25 01:53:03;;;;;;;25.35;16.38;;;;;;;15.28;73.79;98682.75;5201409;28;20081;-76
2022/09/25 01:56:00;;;;;;;;;;;;;;;15.35;73.24;98689.03;5200164;28;20049;-75
2022/09/25 01:58:58;;;;;;;25.08;15.23;;;;;;;15.32;73.31;98686.72;5200393;28;19928;-77
2022/09/25 02:01:51;;;;;;;29.92;18.02;;;;;;;15.39;73.38;98689.47;5206202;28;20073;-77
2022/09/25 02:04:48;;;;;;;28.08;17.23;;;;;;;15.28;73.91;98682.75;5200204;28;20517;-76
2022/09/25 02:07:43;;;;;;;26.13;17.45;;;;;;;15.31;73.47;98677.03;5199878;28;20080;-76
2022/09/25 02:10:40;;;;;;;28.27;18.08;;;;;;;15.25;73.45;98683.09;5201196;28;20088;-75
2022/09/25 02:13:37;;;;;;;29.58;17.42;;;;;;;15.05;75.09;98688.13;5198725;28;20045;-74
2022/09/25 02:16:34;;;;;;;29.42;18.65;;;;;;;15.10;74.54;98684.91;5197921;28;20092;-74
2022/09/25 02:22:34;;;;;;;27.25;18.30;;;;;;;15.11;74.12;98681.25;5198590;28;20138;-74
2022/09/25 02:25:34;;;;;;;28.30;17.10;;;;;;;15.09;74.03;98680.59;5198309;28;20517;-74
2022/09/25 02:28:26;;;;;;;25.88;15.50;;;;;;;15.06;73.73;98683.63;5198377;28;20045;-74
2022/09/25 02:31:18;;;;;;;25.40;16.02;;;;;;;15.11;73.71;98673.25;5197296;28;20050;-74
2022/09/25 02:34:10;;;;;;;23.13;15.80;;;;;;;15.17;72.98;98680.53;5200501;28;20094;-74
2022/09/25 02:37:11;;;;;;;22.85;15.48;;;;;;;15.34;72.37;98667.84;5198562;28;20088;-74
2022/09/25 02:40:03;;;;;;;25.77;16.75;;;;;;;15.24;72.42;98665.44;5199791;28;20128;-74
2022/09/25 02:43:05;;;;;;;26.67;16.08;;;;;;;15.02;73.42;98675.97;5189109;28;20060;-74
2022/09/25 02:46:01;;;;;;;25.48;16.02;;;;;;;14.93;74.07;98669.06;5198504;28;20053;-74
2022/09/25 02:49:09;;;;;;;24.00;15.52;;;;;;;15.01;73.27;98670.81;5196444;28;20085;-75
2022/09/25 02:52:09;;;;;;;21.45;14.43;;;;;;;14.91;72.66;98676.41;5209871;28;20745;-74
2022/09/25 02:55:16;;;;;;;22.35;15.23;;;;;;;14.91;73.27;98673.72;5198685;28;20046;-75
2022/09/25 02:58:15;;;;;;;23.15;15.27;;;;;;;14.88;73.31;98671.41;5195429;28;20691;-74
2022/09/25 03:01:09;;;;;;;22.48;14.02;;;;;;;14.86;72.53;98678.75;5201783;28;20065;-75
2022/09/25 03:04:00;;;;;;;24.17;14.95;;;;;;;14.86;72.53;98660.06;5204481;28;20410;-75
2022/09/25 03:06:51;;;;;;;24.17;14.90;;;;;;;14.83;72.28;98652.44;5202095;28;20126;-74
2022/09/25 03:09:45;;;;;;;20.60;13.68;;;;;;;14.91;72.85;98664.91;5203987;28;20075;-74
2022/09/25 03:12:36;;;;;;;23.15;14.45;;;;;;;14.79;72.70;98645.78;5203273;28;20053;-74
2022/09/25 03:15:26;;;;;;;21.90;14.68;;;;;;;14.98;72.51;98660.50;5201325;28;20175;-75
2022/09/25 03:18:17;;;;;;;23.42;13.98;;;;;;;14.86;72.83;98652.06;5200820;28;20051;-75
2022/09/25 03:21:07;;;;;;;19.52;13.60;;;;;;;14.98;72.39;98668.50;5204457;28;20596;-75
2022/09/25 03:23:57;;;;;;;21.42;14.02;;;;;;;14.99;72.69;98668.31;5200736;28;20064;-74
2022/09/25 03:26:48;;;;;;;24.45;15.00;;;;;;;15.08;72.14;98669.06;5204232;28;20137;-76
2022/09/25 03:29:38;;;;;;;20.02;14.35;;;;;;;14.95;72.80;98661.69;5202422;28;20046;-74
2022/09/25 03:32:28;;;;;;;23.42;14.15;;;;;;;15.09;72.52;98667.22;5203891;28;20119;-75
2022/09/25 03:35:18;;;;;;;21.83;15.32;;;;;;;15.06;72.53;98664.91;5199032;28;20526;-76
2022/09/25 03:38:09;;;;;;;23.30;15.35;;;;;;;15.18;72.04;98663.47;5202657;28;20432;-74
2022/09/25 03:40:59;;;;;;;22.15;15.93;;;;;;;15.06;72.12;98654.25;5199443;28;20049;-75
2022/09/25 03:43:50;;;;;;;24.70;15.98;;;;;;;14.98;72.74;98655.97;5196378;28;20076;-74
2022/09/25 03:46:41;;;;;;;26.95;16.58;;;;;;;15.05;72.59;98666.75;5215055;28;20075;-75
2022/09/25 03:49:31;;;;;;;25.15;16.05;;;;;;;14.97;72.60;98673.00;5204670;28;20049;-75
2022/09/25 03:52:21;;;;;;;25.98;16.63;;;;;;;15.02;72.22;98667.94;5202025;28;20514;-75
2022/09/25 03:55:10;;;;;;;24.27;15.48;;;;;;;14.92;72.45;98659.38;5201257;28;20083;-76
2022/09/25 03:58:01;;;;;;;20.88;14.43;;;;;;;14.95;72.55;98672.34;5194407;28;20045;-75
2022/09/25 04:00:54;;;;;;;24.88;16.35;;;;;;;14.97;72.61;98664.19;5216901;28;20068;-76
2022/09/25 04:03:46;;;;;;;23.45;15.43;;;;;;;15.03;72.23;98676.78;5205071;28;20573;-74
2022/09/25 04:06:36;;;;;;;24.77;16.15;;;;;;;14.99;72.43;98664.81;5202736;28;20046;-75
2022/09/25 04:09:26;;;;;;;25.42;16.60;;;;;;;15.07;72.23;98671.94;5201028;28;20079;-75
2022/09/25 04:12:16;;;;;;;25.73;16.85;;;;;;;15.16;72.40;98678.84;5202468;28;20051;-75
2022/09/25 04:15:08;;;;;;;27.80;17.38;;;;;;;15.09;72.58;98672.56;5199240;28;20088;-74
2022/09/25 04:17:58;;;;;;;25.42;17.05;;;;;;;15.16;72.21;98669.00;5201067;28;20128;-75
2022/09/25 04:20:55;;;;;;;26.10;16.95;;;;;;;15.13;72.41;98674.72;5199599;28;20065;-75
2022/09/25 04:26:54;;;;;;;27.98;16.05;;;;;;;15.13;72.24;98661.38;5204340;28;20076;-75
2022/09/25 04:29:45;;;;;;;26.88;16.67;;;;;;;15.27;72.40;98673.91;5200041;28;20056;-76
2022/09/25 04:35:44;;;;;;;24.58;16.15;;;;;;;15.13;72.75;98666.72;5216351;28;20191;-75
2022/09/25 04:38:34;;;;;;;27.23;16.92;;;;;;;15.20;72.09;98659.63;5198265;28;20171;-76
2022/09/25 04:41:24;;;;;;;26.75;17.15;;;;;;;15.15;72.33;98662.00;5205125;28;20049;-76
2022/09/25 04:44:14;;;;;;;26.27;16.27;;;;;;;15.20;71.70;98664.16;5198796;28;20056;-77
2022/09/25 04:47:05;;;;;;;25.67;16.65;;;;;;;15.11;71.99;98667.91;5213947;28;20151;-75
2022/09/25 04:49:55;;;;;;;26.45;17.02;;;;;;;15.17;71.73;98656.50;5199713;28;20099;-74
2022/09/25 04:52:45;;;;;;;24.33;15.32;;;;;;;15.08;71.76;98650.38;5202379;28;20052;-74
2022/09/25 04:55:36;;;;;;;28.25;16.33;;;;;;;15.09;71.57;98651.22;5201188;28;20518;-73
2022/09/25 04:58:26;;;;;;;26.88;15.18;;;;;;;15.02;71.92;98657.28;5194820;28;20056;-74
2022/09/25 05:01:18;;;;;;;24.40;15.43;;;;;;;15.03;72.27;98652.75;5198312;28;20049;-74
2022/09/25 05:04:08;;;;;;;25.08;15.93;;;;;;;15.03;71.69;98658.09;5203378;28;20045;-73
2022/09/25 05:06:58;;;;;;;24.20;15.27;;;;;;;14.82;72.45;98652.63;5185479;28;20139;-74
2022/09/25 05:09:49;;;;;;;24.48;15.48;;;;;;;14.88;71.87;98660.75;5195210;28;20491;-75
2022/09/25 05:12:40;;;;;;;28.00;15.75;;;;;;;14.98;72.15;98668.50;5202138;28;20045;-74
2022/09/25 05:15:32;;;;;;;29.48;15.98;;;;;;;14.96;72.30;98668.66;5197353;28;20049;-76
2022/09/25 05:18:23;;;;;;;21.67;14.88;;;;;;;15.00;72.36;98659.31;5198671;28;20498;-75
2022/09/25 05:21:13;;;;;;;23.10;14.20;;;;;;;15.00;72.23;98659.31;5187870;28;20083;-75
2022/09/25 05:24:04;;;;;;;23.00;14.32;;;;;;;14.95;72.22;98656.34;5201991;28;20114;-74
2022/09/25 05:26:54;;;;;;;24.95;15.32;;;;;;;15.01;71.67;98660.97;5195491;28;20140;-73
2022/09/25 05:29:47;;;;;;;25.10;15.68;;;;;;;14.98;72.01;98652.47;5201281;28;20076;-73
2022/09/25 05:32:37;;;;;;;25.65;15.30;;;;;;;14.96;71.80;98663.31;5200485;28;20068;-74
2022/09/25 05:35:29;;;;;;;22.80;14.27;;;;;;;14.82;72.36;98665.97;5198942;28;20076;-74
2022/09/25 05:38:19;;;;;;;23.08;14.63;;;;;;;14.70;72.77;98658.38;5201563;28;20056;-73
2022/09/25 05:41:10;;;;;;;27.02;15.90;;;;;;;14.84;72.93;98666.63;5205100;28;20053;-73
2022/09/25 05:44:05;;;;;;;23.55;15.48;;;;;;;14.94;72.67;98662.69;5201960;28;20514;-73
2022/09/25 05:46:55;;;;;;;29.25;15.45;;;;;;;14.91;72.30;98649.69;5196707;28;20175;-76
2022/09/25 05:49:45;;;;;;;26.00;15.57;;;;;;;15.00;72.05;98661.16;5202611;28;20056;-75
2022/09/25 05:52:35;;;;;;;26.02;15.57;;;;;;;14.98;71.99;98666.66;5199118;28;20053;-74
2022/09/25 05:55:26;;;;;;;25.33;16.00;;;;;;;14.99;72.24;98668.31;5198137;28;20053;-74
2022/09/25 05:58:16;;;;;;;27.17;16.35;;;;;;;14.96;71.68;98668.66;5200956;28;20099;-74
2022/09/25 06:01:06;;;;;;;26.65;16.13;;;;;;;15.03;72.05;98669.63;5200158;28;20049;-74
2022/09/25 06:03:56;;;;;;;25.85;16.05;;;;;;;14.81;72.76;98654.47;5199426;28;20050;-74
2022/09/25 06:06:46;;;;;;;28.35;16.20;;;;;;;15.05;72.18;98666.75;5200673;28;20061;-74
2022/09/25 06:09:36;;;;;;;29.50;16.60;;;;;;;15.00;72.31;98664.66;5201321;28;20168;-74
2022/09/25 06:12:30;;;;;;;28.13;16.48;;;;;;;15.00;72.02;98672.66;5184276;28;20061;-74
2022/09/25 06:15:22;;;;;;;27.23;16.00;;;;;;;15.12;71.94;98667.69;5199472;28;20588;-74
2022/09/25 06:18:13;;;;;;;31.17;16.42;;;;;;;15.03;72.53;98669.63;5200185;28;20122;-74
2022/09/25 06:21:04;;;;;;;44.30;25.25;;;;;;;15.20;71.94;98674.81;5201575;28;20591;-74
2022/09/25 06:23:54;;;;;;;34.38;19.48;;;;;;;15.21;71.92;98671.13;5200110;28;20052;-74
2022/09/25 06:26:44;;;;;;;29.90;16.98;;;;;;;15.11;71.98;98668.72;5203728;28;20092;-75
2022/09/25 06:29:35;;;;;;;28.52;15.90;;;;;;;15.23;72.27;98664.59;5202680;28;20488;-74
2022/09/25 06:32:25;;;;;;;30.08;16.90;;;;;;;15.20;71.79;98661.47;5201476;28;20062;-76
2022/09/25 06:35:15;;;;;;;26.55;15.98;;;;;;;15.35;72.67;98675.66;5202550;28;20625;-73
2022/09/25 06:38:05;;;;;;;29.13;17.90;;;;;;;15.38;72.02;98682.50;5197905;28;20053;-73
2022/09/25 06:40:58;;;;;;;28.00;16.92;;;;;;;15.40;72.05;98672.47;5182275;28;20045;-74
2022/09/25 06:43:50;;;;;;;26.60;16.60;;;;;;;15.36;72.16;98661.28;5202329;28;20695;-74
2022/09/25 06:46:43;;;;;;;30.20;17.30;;;;;;;15.51;72.09;98682.69;5202983;28;20049;-77
2022/09/25 06:49:34;;;;;;;29.90;17.92;;;;;;;15.50;71.80;98681.88;5203087;28;20048;-76
2022/09/25 06:52:24;;;;;;;29.30;17.08;;;;;;;15.56;72.40;98680.28;5200768;28;20100;-76
2022/09/25 06:55:13;;;;;;;29.50;17.50;;;;;;;15.59;71.30;98669.22;5204975;28;20089;-74
2022/09/25 06:58:06;;;;;;;29.17;16.35;;;;;;;15.55;70.91;98675.97;5200588;28;20107;-72
2022/09/25 07:00:56;;;;;;;28.33;16.17;;;;;;;15.56;71.27;98680.28;5203316;28;20630;-74
2022/09/25 07:03:48;;;;;;;23.58;15.13;;;;;;;15.68;70.78;98683.38;5196075;28;20052;-72
2022/09/25 07:06:38;;;;;;;31.20;15.90;;;;;;;15.65;71.32;98678.38;5200168;28;20091;-74
2022/09/25 07:09:28;;;;;;;25.98;15.80;;;;;;;15.79;71.38;98687.44;5201715;28;20694;-72
2022/09/25 07:12:18;;;;;;;28.65;15.93;;;;;;;15.74;70.79;98686.13;5200309;28;20055;-71
2022/09/25 07:15:10;;;;;;;24.55;14.75;;;;;;;15.60;71.16;98683.44;5198236;28;20452;-72
2022/09/25 07:18:00;;;;;;;24.02;15.18;;;;;;;15.81;71.20;98688.09;5198066;28;20051;-71
2022/09/25 07:20:52;;;;;;;23.52;14.95;;;;;;;15.85;70.78;98690.19;5199591;28;20049;-72
2022/09/25 07:23:45;;;;;;;22.33;13.93;;;;;;;15.87;70.35;98687.34;5200851;28;20673;-71
2022/09/25 07:26:35;;;;;;;21.75;13.57;;;;;;;15.80;71.07;98697.94;5202668;28;20049;-72
2022/09/25 07:29:34;;;;;;;22.92;13.38;;;;;;;15.89;70.21;98696.00;5197475;28;20048;-72
2022/09/25 07:32:24;;;;;;;20.00;13.07;;;;;;;15.91;69.95;98689.44;5195600;28;20053;-72
2022/09/25 07:35:14;;;;;;;26.02;13.02;;;;;;;15.98;69.38;98689.53;5200504;28;20048;-73
2022/09/25 07:38:05;;;;;;;22.50;13.02;;;;;;;16.03;69.61;98691.69;5198733;28;20709;-72
2022/09/25 07:40:55;;;;;;;21.95;13.25;;;;;;;16.02;70.15;98685.47;5206309;28;20049;-73
2022/09/25 07:43:45;;;;;;;20.40;12.50;;;;;;;15.92;70.08;98691.09;5195722;28;20049;-73
2022/09/25 07:46:41;;;;;;;19.10;12.25;;;;;;;15.87;69.11;98695.38;5197036;28;20450;-73
2022/09/25 07:49:33;;;;;;;23.73;13.48;;;;;;;15.82;70.72;98690.56;5198631;28;20168;-73
2022/09/25 07:52:24;;;;;;;19.35;12.32;;;;;;;15.63;70.32;98697.28;5200940;28;20099;-73
2022/09/25 07:55:14;;;;;;;20.15;12.48;;;;;;;15.68;70.52;98673.50;5202627;28;20049;-73
2022/09/25 07:58:04;;;;;;;20.30;12.75;;;;;;;15.92;70.24;98692.94;5195185;28;20080;-73
2022/09/25 08:01:00;;;;;;;19.13;11.68;;;;;;;15.52;71.12;98695.03;5205675;28;20475;-74
2022/09/25 08:03:50;;;;;;;17.52;11.57;;;;;;;15.65;69.57;98694.41;5201578;28;20151;-73
2022/09/25 08:06:40;;;;;;;18.42;12.02;;;;;;;15.14;72.76;98696.91;5201514;28;20046;-73
2022/09/25 08:09:30;;;;;;;17.35;11.20;;;;;;;15.86;70.07;98689.19;5201234;28;20045;-73
2022/09/25 08:12:24;;;;;;;16.85;11.00;;;;;;;15.66;70.76;98702.28;5199307;28;20053;-71
2022/09/25 08:15:14;;;;;;;17.73;11.60;;;;;;;16.03;69.91;98692.50;5201608;28;20053;-74
2022/09/25 08:18:04;;;;;;;18.17;11.90;;;;;;;16.03;68.58;98689.00;5199563;28;20053;-75
2022/09/25 08:21:00;;;;;;;17.00;10.98;;;;;;;15.77;70.19;98687.63;5202145;28;20041;-75
2022/09/25 08:23:52;;;;;;;18.52;12.20;;;;;;;15.86;70.01;98701.72;5193897;28;20053;-74
2022/09/25 08:26:42;;;;;;;21.10;11.80;;;;;;;15.78;69.54;98699.13;5201339;28;20052;-72
2022/09/25 08:29:33;;;;;;;20.48;12.02;;;;;;;16.26;68.51;98712.91;5201770;28;20776;-71
2022/09/25 08:32:23;;;;;;;20.55;12.10;;;;;;;16.36;68.73;98702.78;5190662;28;20049;-72
2022/09/25 08:35:14;;;;;;;19.73;12.70;;;;;;;16.58;66.97;98691.06;5206232;28;20053;-74
2022/09/25 08:38:04;;;;;;;23.98;13.15;;;;;;;15.98;67.99;98679.66;5195059;28;20123;-73
2022/09/25 08:41:13;;;;;;;21.02;13.57;;;;;;;16.43;68.07;98692.97;5196802;28;20139;-75
2022/09/25 08:44:34;;;;;;;20.60;12.57;;;;;;;16.09;68.99;98690.91;5195030;28;20064;-73
2022/09/25 08:50:36;;;;;;;20.13;12.18;;;;;;;16.56;68.14;98693.13;5200329;28;20056;-75
2022/09/25 08:53:26;;;;;;;20.15;11.68;;;;;;;16.65;67.11;98696.50;5184719;28;20068;-71
2022/09/25 08:56:16;;;;;;;20.55;11.77;;;;;;;16.18;67.98;98682.59;5198791;28;20064;-73
2022/09/25 08:59:24;;;;;;;18.45;11.93;;;;;;;16.28;67.51;98658.22;5198618;28;20108;-73
2022/09/25 09:02:21;;;;;;;19.98;12.40;;;;;;;16.77;67.46;98676.28;5200268;28;20134;-74
2022/09/25 09:05:17;;;;;;;22.92;13.68;;;;;;;16.36;67.43;98686.72;5199985;28;20045;-73
2022/09/25 09:08:24;;;;;;;21.42;13.10;;;;;;;15.95;68.58;98687.22;5194767;28;20054;-74
2022/09/25 09:11:20;;;;;;;22.95;12.65;;;;;;;16.32;68.01;98674.72;5192169;28;20054;-72
2022/09/25 09:14:15;;;;;;;20.45;12.25;;;;;;;16.19;67.83;98657.53;5201166;28;20056;-74
2022/09/25 09:17:16;;;;;;;18.85;12.38;;;;;;;16.20;68.37;98688.59;5200968;28;20527;-74
2022/09/25 09:20:18;;;;;;;19.80;13.05;;;;;;;16.31;66.76;98689.13;5196801;28;20045;-74
2022/09/25 09:23:17;;;;;;;20.40;12.82;;;;;;;16.28;68.32;98690.31;5194130;28;20486;-71
2022/09/25 09:26:19;;;;;;;24.10;13.48;;;;;;;16.11;68.49;98688.88;5193872;28;20064;-73
2022/09/25 09:29:31;;;;;;;24.45;13.98;;;;;;;15.86;69.61;98688.34;5190561;28;20057;-74
2022/09/25 09:32:49;;;;;;;22.02;12.48;;;;;;;15.85;68.64;98684.84;5192526;28;20048;-74
2022/09/25 09:36:04;;;;;;;21.10;13.43;;;;;;;15.39;69.87;98681.47;5191231;28;20057;-74
2022/09/25 09:39:13;;;;;;;22.38;14.45;;;;;;;16.26;68.80;98687.03;5191554;28;20085;-73
2022/09/25 09:42:22;;;;;;;21.58;14.15;;;;;;;16.28;67.80;98678.78;5192613;28;20061;-74
2022/09/25 09:45:45;;;;;;;23.92;14.52;;;;;;;16.21;67.42;98678.72;5193050;28;20060;-74
2022/09/25 09:48:59;;;;;;;23.02;14.43;;;;;;;16.11;67.24;98667.50;5198411;28;20415;-74
2022/09/25 09:51:56;;;;;;;29.20;15.93;;;;;;;15.96;68.42;98673.69;5196027;28;20138;-74
2022/09/25 09:54:57;;;;;;;25.13;14.40;;;;;;;16.40;67.70;98671.94;5202990;28;20088;-74
2022/09/25 09:57:56;;;;;;;24.15;15.25;;;;;;;16.29;68.35;98675.94;5200840;28;20045;-74
2022/09/25 10:00:48;;;;;;;23.33;15.05;;;;;;;16.39;67.17;98687.19;5198383;28;20053;-73
2022/09/25 10:03:39;;;;;;;24.55;15.65;;;;;;;16.35;66.84;98663.66;5200300;28;20681;-74
2022/09/25 10:06:34;;;;;;;20.75;14.18;;;;;;;16.60;67.65;98659.59;5203483;28;20068;-74
2022/09/25 10:09:26;;;;;;;24.02;15.43;;;;;;;16.65;67.47;98683.97;5200801;28;20129;-73
2022/09/25 10:12:29;;;;;;;22.77;14.52;;;;;;;16.96;67.01;98682.00;5204459;28;20442;-74
2022/09/25 10:15:33;;;;;;;22.15;15.02;;;;;;;17.13;66.57;98678.84;5203725;28;20049;-74
2022/09/25 10:18:30;;;;;;;25.33;14.77;;;;;;;16.33;67.05;98665.69;5204554;28;20087;-74
2022/09/25 10:21:43;;;;;;;23.75;14.98;;;;;;;16.41;67.42;98663.72;5199273;28;20120;-76
2022/09/25 10:24:57;;;;;;;21.33;13.88;;;;;;;16.91;66.32;98671.88;5199864;28;20435;-72
2022/09/25 10:27:48;;;;;;;22.13;13.25;;;;;;;16.27;67.52;98656.56;5199641;28;20060;-74
2022/09/25 10:30:45;;;;;;;20.80;13.20;;;;;;;16.96;67.38;98665.94;5202308;28;20056;-73
2022/09/25 10:33:36;;;;;;;17.27;12.45;;;;;;;17.12;65.96;98660.31;5214439;28;20123;-74
2022/09/25 10:36:37;;;;;;;20.80;12.43;;;;;;;16.92;66.37;98665.50;5199353;28;20072;-72
2022/09/25 10:39:38;;;;;;;18.42;12.38;;;;;;;16.85;66.20;98675.31;5199674;28;20045;-70
2022/09/25 10:42:40;;;;;;;18.95;11.07;;;;;;;16.68;66.27;98664.81;5197310;28;20504;-72
2022/09/25 10:45:33;;;;;;;17.58;10.88;;;;;;;16.59;66.57;98676.69;5202399;28;20050;-71
2022/09/25 10:52:08;;;;;;;14.98;9.80;;;;;;;17.51;65.06;98665.09;5196896;28;20061;-77
2022/09/25 10:55:35;;;;;;;12.33;8.63;;;;;;;17.30;63.84;98667.84;5191409;28;20607;-74
2022/09/25 10:58:38;;;;;;;13.95;9.30;;;;;;;17.30;64.38;98668.69;5190389;28;20296;-73
2022/09/25 11:01:34;;;;;;;14.18;9.68;;;;;;;17.09;63.60;98669.56;5192969;28;20053;-77
2022/09/25 11:04:31;;;;;;;14.27;9.32;;;;;;;17.06;64.08;98650.38;5190550;28;20601;-76
2022/09/25 11:07:26;;;;;;;17.63;10.98;;;;;;;16.60;65.68;98667.63;5203511;28;20135;-75
2022/09/25 11:10:26;;;;;;;18.60;11.15;;;;;;;16.67;65.35;98665.03;5197847;28;20046;-75
2022/09/25 11:13:27;;;;;;;17.33;11.40;;;;;;;16.97;63.79;98668.41;5201457;28;20100;-74
2022/09/25 11:16:19;;;;;;;22.58;13.48;;;;;;;17.00;63.77;98668.03;5191499;28;20099;-73
2022/09/25 11:19:18;;;;;;;18.05;11.93;;;;;;;17.05;64.65;98675.47;5195406;28;20508;-72
2022/09/25 11:22:35;;;;;;;23.13;13.57;;;;;;;16.95;63.66;98674.97;5187838;28;20084;-73
2022/09/25 11:25:32;;;;;;;21.00;12.80;;;;;;;17.46;64.50;98672.94;5190557;28;20067;-73
2022/09/25 11:28:53;;;;;;;23.13;13.85;;;;;;;17.32;63.29;98681.91;5198452;28;20056;-74
2022/09/25 11:31:52;;;;;;;24.58;14.70;;;;;;;17.29;63.92;98652.81;5197872;28;20081;-74
2022/09/25 11:34:59;;;;;;;27.20;14.45;;;;;;;18.26;61.90;98663.47;5200850;28;20060;-74
2022/09/25 11:38:05;;;;;;;23.48;14.48;;;;;;;17.98;60.31;98665.41;5195854;28;20553;-72
2022/09/25 11:41:11;;;;;;;23.67;14.98;;;;;;;18.04;61.18;98656.56;5187239;28;20058;-72
2022/09/25 11:44:20;;;;;;;21.70;14.88;;;;;;;18.04;61.12;98664.59;5196155;28;20144;-71
2022/09/25 11:47:19;;;;;;;21.13;14.63;;;;;;;17.94;61.36;98656.91;5187135;28;20831;-73
2022/09/25 11:50:15;;;;;;;21.73;13.82;;;;;;;17.72;61.56;98658.88;5194018;28;20530;-72
2022/09/25 11:53:24;;;;;;;18.65;12.27;;;;;;;17.53;61.67;98652.34;5192238;28;20079;-72
2022/09/25 11:56:29;;;;;;;20.58;11.07;;;;;;;17.69;61.13;98651.22;5196362;28;20065;-71
2022/09/25 11:59:30;;;;;;;16.83;11.32;;;;;;;18.09;61.61;98651.44;5198616;28;20518;-75
2022/09/25 12:02:48;;;;;;;15.27;10.40;;;;;;;17.35;62.39;98655.53;5191520;28;20180;-74
2022/09/25 12:06:20;;;;;;;16.17;10.43;;;;;;;17.98;62.41;98647.47;5198451;28;20045;-75
2022/09/25 12:09:31;;;;;;;17.23;10.13;;;;;;;18.64;60.25;98638.78;5200455;28;20045;-74
2022/09/25 12:12:31;;;;;;;11.30;8.05;;;;;;;18.24;58.87;98635.97;5197562;28;20099;-73
2022/09/25 12:15:37;;;;;;;10.80;8.00;;;;;;;18.31;60.47;98639.53;5199848;28;20515;-73
2022/09/25 12:18:59;;;;;;;10.85;8.05;;;;;;;18.27;59.07;98632.91;5201511;28;20179;-74
2022/09/25 12:22:15;;;;;;;12.70;7.55;;;;;;;18.09;60.66;98635.34;5190042;28;20517;-74
2022/09/25 12:25:15;;;;;;;;;;;;;;;18.17;61.39;98629.78;5200815;28;20057;-75
2022/09/25 12:28:45;;;;;;;9.05;5.97;;;;;;;18.90;57.07;98632.63;5195813;28;20004;-76
2022/09/25 12:31:58;;;;;;;9.63;6.25;;;;;;;19.33;59.71;98626.00;5197452;28;20060;-76
2022/09/25 12:35:11;;;;;;;8.40;6.45;;;;;;;19.22;57.50;98603.28;5197737;28;20500;-76
2022/09/25 12:38:17;;;;;;;8.38;5.93;;;;;;;19.64;56.85;98593.91;5193205;28;20056;-72
2022/09/25 12:41:29;;;;;;;7.10;5.55;;;;;;;19.83;56.60;98615.53;5194565;28;20049;-75
2022/09/25 12:44:34;;;;;;;5.43;4.00;;;;;;;19.09;56.13;98622.09;5199359;28;20069;-75
2022/09/25 12:47:33;;;;;;;4.95;3.20;;;;;;;17.57;59.59;98624.13;5182917;28;20134;-74
2022/09/25 12:53:39;;;;;;;4.22;2.72;;;;;;;18.05;58.74;98626.84;5197240;28;20054;-70
2022/09/25 12:56:45;;;;;;;3.83;3.28;;;;;;;17.94;60.86;98621.22;5182682;28;20060;-71
2022/09/25 12:59:48;;;;;;;4.70;3.55;;;;;;;17.46;60.68;98613.13;5182152;28;20567;-70
2022/09/25 13:02:57;;;;;;;4.25;3.30;;;;;;;17.37;61.68;98615.13;5197768;28;20068;-71
2022/09/25 13:06:31;;;;;;;4.57;3.55;;;;;;;17.34;62.50;98626.25;5182943;28;20053;-73
2022/09/25 13:09:59;;;;;;;5.90;4.70;;;;;;;17.28;60.92;98616.31;5165160;28;20150;-69
2022/09/25 13:12:54;;;;;;;5.75;4.18;;;;;;;17.67;58.94;98607.66;5131004;28;20926;-70
2022/09/25 13:15:52;;;;;;;15.43;4.88;;;;;;;18.47;59.40;98607.97;5198893;28;20050;-72
2022/09/25 13:19:21;;;;;;;5.45;4.22;;;;;;;18.40;58.03;98604.44;5184408;28;20068;-73
2022/09/25 13:22:18;;;;;;;4.88;3.60;;;;;;;17.75;60.58;98599.47;5172070;28;20577;-73
2022/09/25 13:25:14;;;;;;;4.60;3.58;;;;;;;17.53;59.51;98609.47;5200831;28;20127;-73
2022/09/25 13:28:06;;;;;;;4.60;3.15;;;;;;;16.92;60.09;98614.63;5198004;28;20676;-74
2022/09/25 13:31:14;;;;;;;5.15;3.22;;;;;;;17.12;60.14;98615.59;5198415;28;20056;-71
2022/09/25 13:34:14;;;;;;;3.58;3.03;;;;;;;17.29;60.29;98605.41;5182764;28;20057;-71
2022/09/25 13:37:08;;;;;;;4.50;3.00;;;;;;;17.71;60.10;98600.06;5200477;28;20041;-70
2022/09/25 13:43:17;;;;;;;4.63;3.20;;;;;;;17.96;59.46;98597.72;5197731;28;20423;-72
2022/09/25 13:46:13;;;;;;;5.13;4.00;;;;;;;18.02;59.47;98603.13;5200585;28;20060;-71
2022/09/25 13:50:05;;;;;;;5.45;3.92;;;;;;;18.15;59.49;98606.88;5198255;28;20053;-72
2022/09/25 13:53:16;;;;;;;5.40;3.60;;;;;;;18.47;59.15;98611.47;5146450;28;20050;-73
2022/09/25 13:56:12;;;;;;;4.68;3.30;;;;;;;17.87;58.54;98610.47;5152244;28;20246;-71
2022/09/25 13:59:09;;;;;;;11.30;5.40;;;;;;;17.50;59.98;98609.03;5194555;28;20049;-72